sensor_id;sensor_type;location;lat;lon;timestamp;P1;durP1;ratioP1;P2;durP2;ratioP2
30080;SDS011;16902;50.816;12.828;2023-03-22T00:03:42;13.07;;;8.05;;
30080;SDS011;16902;50.816;12.828;2023-03-22T00:08:45;14.63;;;7.93;;
30080;SDS011;16902;50.816;12.828;2023-03-22T00:13:51;12.07;;;8.02;;
30080;SDS011;16902;50.816;12.828;2023-03-22T00:18:54;11.05;;;8.40;;
30080;SDS011;16902;50.816;12.828;2023-03-22T00:23:56;11.88;;;8.35;;
30080;SDS011;16902;50.816;12.828;2023-03-22T00:28:57;10.68;;;7.28;;
30080;SDS011;16902;50.816;12.828;2023-03-22T00:33:59;10.63;;;7.53;;
30080;SDS011;16902;50.816;12.828;2023-03-22T00:39:01;10.90;;;6.97;;
30080;SDS011;16902;50.816;12.828;2023-03-22T00:44:03;9.43;;;7.15;;
30080;SDS011;16902;50.816;12.828;2023-03-22T00:49:05;8.95;;;7.32;;
30080;SDS011;16902;50.816;12.828;2023-03-22T00:54:06;11.85;;;7.93;;
30080;SDS011;16902;50.816;12.828;2023-03-22T00:59:08;11.18;;;7.57;;
30080;SDS011;16902;50.816;12.828;2023-03-22T01:04:10;10.32;;;7.55;;
30080;SDS011;16902;50.816;12.828;2023-03-22T01:09:18;10.82;;;7.30;;
30080;SDS011;16902;50.816;12.828;2023-03-22T01:14:24;10.68;;;6.93;;
30080;SDS011;16902;50.816;12.828;2023-03-22T01:19:26;11.68;;;7.35;;
30080;SDS011;16902;50.816;12.828;2023-03-22T01:24:28;9.93;;;7.18;;
30080;SDS011;16902;50.816;12.828;2023-03-22T01:29:30;8.55;;;6.85;;
30080;SDS011;16902;50.816;12.828;2023-03-22T01:34:31;9.23;;;6.85;;
30080;SDS011;16902;50.816;12.828;2023-03-22T01:39:34;10.60;;;7.18;;
30080;SDS011;16902;50.816;12.828;2023-03-22T01:44:41;8.00;;;6.03;;
30080;SDS011;16902;50.816;12.828;2023-03-22T01:49:47;10.25;;;6.93;;
30080;SDS011;16902;50.816;12.828;2023-03-22T01:54:50;8.13;;;6.65;;
30080;SDS011;16902;50.816;12.828;2023-03-22T02:00:12;9.20;;;6.25;;
30080;SDS011;16902;50.816;12.828;2023-03-22T02:05:42;11.35;;;7.32;;
30080;SDS011;16902;50.816;12.828;2023-03-22T02:10:45;11.93;;;8.20;;
30080;SDS011;16902;50.816;12.828;2023-03-22T02:15:55;11.60;;;6.75;;
30080;SDS011;16902;50.816;12.828;2023-03-22T02:21:32;8.15;;;6.30;;
30080;SDS011;16902;50.816;12.828;2023-03-22T02:48:40;11.45;;;6.88;;
30080;SDS011;16902;50.816;12.828;2023-03-22T02:53:52;9.98;;;6.15;;
30080;SDS011;16902;50.816;12.828;2023-03-22T02:59:00;9.07;;;6.15;;
30080;SDS011;16902;50.816;12.828;2023-03-22T03:04:07;12.38;;;7.28;;
30080;SDS011;16902;50.816;12.828;2023-03-22T03:09:14;12.38;;;7.38;;
30080;SDS011;16902;50.816;12.828;2023-03-22T03:14:22;7.95;;;5.88;;
30080;SDS011;16902;50.816;12.828;2023-03-22T03:19:35;12.15;;;7.60;;
30080;SDS011;16902;50.816;12.828;2023-03-22T03:24:46;11.70;;;7.15;;
30080;SDS011;16902;50.816;12.828;2023-03-22T03:30:01;10.00;;;6.88;;
30080;SDS011;16902;50.816;12.828;2023-03-22T03:35:15;10.32;;;7.35;;
30080;SDS011;16902;50.816;12.828;2023-03-22T03:40:25;10.88;;;7.47;;
30080;SDS011;16902;50.816;12.828;2023-03-22T03:45:31;10.30;;;7.25;;
30080;SDS011;16902;50.816;12.828;2023-03-22T03:50:36;14.00;;;8.52;;
30080;SDS011;16902;50.816;12.828;2023-03-22T03:55:39;13.57;;;7.13;;
30080;SDS011;16902;50.816;12.828;2023-03-22T04:00:41;10.82;;;6.65;;
30080;SDS011;16902;50.816;12.828;2023-03-22T04:06:04;9.70;;;6.60;;
30080;SDS011;16902;50.816;12.828;2023-03-22T04:11:10;11.38;;;7.05;;
30080;SDS011;16902;50.816;12.828;2023-03-22T04:16:13;14.00;;;8.10;;
30080;SDS011;16902;50.816;12.828;2023-03-22T04:21:16;11.77;;;7.10;;
30080;SDS011;16902;50.816;12.828;2023-03-22T04:26:24;10.27;;;7.32;;
30080;SDS011;16902;50.816;12.828;2023-03-22T04:31:49;12.40;;;7.88;;
30080;SDS011;16902;50.816;12.828;2023-03-22T04:36:55;7.97;;;6.47;;
30080;SDS011;16902;50.816;12.828;2023-03-22T04:42:08;9.40;;;6.88;;
30080;SDS011;16902;50.816;12.828;2023-03-22T04:47:12;11.15;;;7.30;;
30080;SDS011;16902;50.816;12.828;2023-03-22T04:52:14;10.32;;;7.57;;
30080;SDS011;16902;50.816;12.828;2023-03-22T04:57:23;10.93;;;6.70;;
30080;SDS011;16902;50.816;12.828;2023-03-22T05:02:25;12.35;;;6.95;;
30080;SDS011;16902;50.816;12.828;2023-03-22T05:07:28;13.23;;;7.32;;
30080;SDS011;16902;50.816;12.828;2023-03-22T05:12:32;15.18;;;8.65;;
30080;SDS011;16902;50.816;12.828;2023-03-22T05:17:51;12.13;;;7.65;;
30080;SDS011;16902;50.816;12.828;2023-03-22T05:22:53;12.05;;;7.32;;
30080;SDS011;16902;50.816;12.828;2023-03-22T05:27:59;11.45;;;7.85;;
30080;SDS011;16902;50.816;12.828;2023-03-22T05:33:14;11.65;;;7.93;;
30080;SDS011;16902;50.816;12.828;2023-03-22T05:38:19;13.18;;;8.95;;
30080;SDS011;16902;50.816;12.828;2023-03-22T05:43:25;11.02;;;8.75;;
30080;SDS011;16902;50.816;12.828;2023-03-22T05:48:27;11.43;;;7.78;;
30080;SDS011;16902;50.816;12.828;2023-03-22T05:53:29;11.07;;;8.07;;
30080;SDS011;16902;50.816;12.828;2023-03-22T05:58:57;11.32;;;8.65;;
30080;SDS011;16902;50.816;12.828;2023-03-22T06:03:59;14.55;;;9.23;;
30080;SDS011;16902;50.816;12.828;2023-03-22T06:09:08;13.30;;;9.65;;
30080;SDS011;16902;50.816;12.828;2023-03-22T06:14:21;12.35;;;8.85;;
30080;SDS011;16902;50.816;12.828;2023-03-22T06:19:45;10.82;;;9.02;;
30080;SDS011;16902;50.816;12.828;2023-03-22T06:24:48;10.70;;;7.90;;
30080;SDS011;16902;50.816;12.828;2023-03-22T06:30:00;13.75;;;9.10;;
30080;SDS011;16902;50.816;12.828;2023-03-22T06:35:05;11.57;;;8.60;;
30080;SDS011;16902;50.816;12.828;2023-03-22T06:40:08;11.98;;;8.25;;
30080;SDS011;16902;50.816;12.828;2023-03-22T06:45:10;13.30;;;8.43;;
30080;SDS011;16902;50.816;12.828;2023-03-22T06:50:17;10.95;;;8.38;;
30080;SDS011;16902;50.816;12.828;2023-03-22T06:55:41;12.15;;;8.50;;
30080;SDS011;16902;50.816;12.828;2023-03-22T07:00:47;14.35;;;9.45;;
30080;SDS011;16902;50.816;12.828;2023-03-22T07:05:51;12.63;;;9.13;;
30080;SDS011;16902;50.816;12.828;2023-03-22T07:10:53;14.68;;;9.35;;
30080;SDS011;16902;50.816;12.828;2023-03-22T07:15:58;14.32;;;10.25;;
30080;SDS011;16902;50.816;12.828;2023-03-22T07:21:24;11.85;;;9.02;;
30080;SDS011;16902;50.816;12.828;2023-03-22T07:26:31;16.88;;;10.18;;
30080;SDS011;16902;50.816;12.828;2023-03-22T07:31:35;11.95;;;8.90;;
30080;SDS011;16902;50.816;12.828;2023-03-22T07:36:43;11.52;;;8.63;;
30080;SDS011;16902;50.816;12.828;2023-03-22T07:41:46;11.13;;;8.68;;
30080;SDS011;16902;50.816;12.828;2023-03-22T07:47:08;9.88;;;7.75;;
30080;SDS011;16902;50.816;12.828;2023-03-22T07:52:17;11.15;;;7.95;;
30080;SDS011;16902;50.816;12.828;2023-03-22T07:57:20;9.73;;;8.80;;
30080;SDS011;16902;50.816;12.828;2023-03-22T08:02:28;9.30;;;8.18;;
30080;SDS011;16902;50.816;12.828;2023-03-22T08:07:32;10.35;;;8.88;;
30080;SDS011;16902;50.816;12.828;2023-03-22T08:12:34;11.65;;;9.30;;
30080;SDS011;16902;50.816;12.828;2023-03-22T08:17:45;9.55;;;8.63;;
30080;SDS011;16902;50.816;12.828;2023-03-22T08:22:58;10.38;;;8.82;;
30080;SDS011;16902;50.816;12.828;2023-03-22T08:28:01;9.10;;;8.32;;
30080;SDS011;16902;50.816;12.828;2023-03-22T08:33:03;9.52;;;8.48;;
30080;SDS011;16902;50.816;12.828;2023-03-22T08:38:07;10.13;;;9.07;;
30080;SDS011;16902;50.816;12.828;2023-03-22T08:43:18;11.20;;;10.20;;
30080;SDS011;16902;50.816;12.828;2023-03-22T08:48:20;9.23;;;8.52;;
30080;SDS011;16902;50.816;12.828;2023-03-22T08:53:45;10.15;;;9.45;;
30080;SDS011;16902;50.816;12.828;2023-03-22T08:59:10;10.68;;;9.88;;
30080;SDS011;16902;50.816;12.828;2023-03-22T09:04:23;11.70;;;10.98;;
30080;SDS011;16902;50.816;12.828;2023-03-22T09:09:25;12.75;;;11.77;;
30080;SDS011;16902;50.816;12.828;2023-03-22T09:14:28;12.13;;;11.35;;
30080;SDS011;16902;50.816;12.828;2023-03-22T09:19:30;13.25;;;12.40;;
30080;SDS011;16902;50.816;12.828;2023-03-22T09:24:32;12.98;;;12.18;;
30080;SDS011;16902;50.816;12.828;2023-03-22T09:29:36;13.52;;;12.65;;
30080;SDS011;16902;50.816;12.828;2023-03-22T09:34:42;13.95;;;13.05;;
30080;SDS011;16902;50.816;12.828;2023-03-22T09:39:45;14.15;;;13.05;;
30080;SDS011;16902;50.816;12.828;2023-03-22T09:44:48;13.80;;;13.10;;
30080;SDS011;16902;50.816;12.828;2023-03-22T09:50:01;14.35;;;13.48;;
30080;SDS011;16902;50.816;12.828;2023-03-22T09:55:17;13.82;;;12.93;;
30080;SDS011;16902;50.816;12.828;2023-03-22T10:00:27;14.52;;;13.73;;
30080;SDS011;16902;50.816;12.828;2023-03-22T10:05:43;13.60;;;12.63;;
30080;SDS011;16902;50.816;12.828;2023-03-22T10:10:51;15.18;;;14.18;;
30080;SDS011;16902;50.816;12.828;2023-03-22T10:15:57;16.67;;;15.75;;
30080;SDS011;16902;50.816;12.828;2023-03-22T10:21:03;16.42;;;15.32;;
30080;SDS011;16902;50.816;12.828;2023-03-22T10:26:07;16.45;;;15.55;;
30080;SDS011;16902;50.816;12.828;2023-03-22T10:31:23;14.98;;;14.27;;
30080;SDS011;16902;50.816;12.828;2023-03-22T10:36:29;16.20;;;15.30;;
30080;SDS011;16902;50.816;12.828;2023-03-22T10:41:34;15.48;;;14.68;;
30080;SDS011;16902;50.816;12.828;2023-03-22T10:46:37;16.05;;;15.05;;
30080;SDS011;16902;50.816;12.828;2023-03-22T10:51:43;16.88;;;15.88;;
30080;SDS011;16902;50.816;12.828;2023-03-22T10:56:49;17.48;;;16.58;;
30080;SDS011;16902;50.816;12.828;2023-03-22T11:01:51;16.23;;;15.43;;
30080;SDS011;16902;50.816;12.828;2023-03-22T11:06:53;16.73;;;15.85;;
30080;SDS011;16902;50.816;12.828;2023-03-22T11:11:59;17.70;;;16.67;;
30080;SDS011;16902;50.816;12.828;2023-03-22T11:22:16;18.40;;;17.35;;
30080;SDS011;16902;50.816;12.828;2023-03-22T11:27:26;18.05;;;16.98;;
30080;SDS011;16902;50.816;12.828;2023-03-22T11:32:37;17.88;;;16.95;;
30080;SDS011;16902;50.816;12.828;2023-03-22T11:37:44;17.70;;;16.65;;
30080;SDS011;16902;50.816;12.828;2023-03-22T11:42:53;17.70;;;16.80;;
30080;SDS011;16902;50.816;12.828;2023-03-22T11:48:01;18.23;;;17.33;;
30080;SDS011;16902;50.816;12.828;2023-03-22T11:53:10;19.08;;;18.08;;
30080;SDS011;16902;50.816;12.828;2023-03-22T11:58:28;18.40;;;17.30;;
30080;SDS011;16902;50.816;12.828;2023-03-22T12:03:45;18.55;;;17.45;;
30080;SDS011;16902;50.816;12.828;2023-03-22T12:08:55;18.35;;;17.45;;
30080;SDS011;16902;50.816;12.828;2023-03-22T12:14:02;19.02;;;17.98;;
30080;SDS011;16902;50.816;12.828;2023-03-22T12:19:18;19.23;;;18.05;;
30080;SDS011;16902;50.816;12.828;2023-03-22T12:24:31;18.60;;;17.65;;
30080;SDS011;16902;50.816;12.828;2023-03-22T12:29:33;18.98;;;17.88;;
30080;SDS011;16902;50.816;12.828;2023-03-22T12:34:40;18.73;;;17.83;;
30080;SDS011;16902;50.816;12.828;2023-03-22T12:39:46;18.63;;;17.73;;
30080;SDS011;16902;50.816;12.828;2023-03-22T12:44:57;18.52;;;17.60;;
30080;SDS011;16902;50.816;12.828;2023-03-22T12:50:11;18.08;;;17.17;;
30080;SDS011;16902;50.816;12.828;2023-03-22T12:55:23;19.02;;;18.13;;
30080;SDS011;16902;50.816;12.828;2023-03-22T13:00:37;18.25;;;17.17;;
30080;SDS011;16902;50.816;12.828;2023-03-22T13:05:43;18.23;;;17.33;;
30080;SDS011;16902;50.816;12.828;2023-03-22T13:16:01;18.15;;;17.25;;
30080;SDS011;16902;50.816;12.828;2023-03-22T13:21:22;18.45;;;17.45;;
30080;SDS011;16902;50.816;12.828;2023-03-22T13:36:53;17.45;;;16.65;;
30080;SDS011;16902;50.816;12.828;2023-03-22T13:47:45;18.05;;;17.17;;
30080;SDS011;16902;50.816;12.828;2023-03-22T14:03:45;18.15;;;17.25;;
30080;SDS011;16902;50.816;12.828;2023-03-22T14:08:52;18.80;;;17.90;;
30080;SDS011;16902;50.816;12.828;2023-03-22T14:14:02;18.20;;;17.30;;
30080;SDS011;16902;50.816;12.828;2023-03-22T14:19:13;18.15;;;17.35;;
30080;SDS011;16902;50.816;12.828;2023-03-22T14:24:18;18.25;;;17.45;;
30080;SDS011;16902;50.816;12.828;2023-03-22T14:29:22;17.95;;;17.05;;
30080;SDS011;16902;50.816;12.828;2023-03-22T14:34:24;18.05;;;17.08;;
30080;SDS011;16902;50.816;12.828;2023-03-22T14:39:47;17.90;;;17.10;;
30080;SDS011;16902;50.816;12.828;2023-03-22T14:44:52;18.23;;;17.33;;
30080;SDS011;16902;50.816;12.828;2023-03-22T14:49:55;19.20;;;17.98;;
30080;SDS011;16902;50.816;12.828;2023-03-22T14:54:59;18.30;;;17.48;;
30080;SDS011;16902;50.816;12.828;2023-03-22T15:00:05;18.58;;;17.58;;
30080;SDS011;16902;50.816;12.828;2023-03-22T15:05:19;17.40;;;16.60;;
30080;SDS011;16902;50.816;12.828;2023-03-22T15:10:25;18.38;;;17.50;;
30080;SDS011;16902;50.816;12.828;2023-03-22T15:15:31;18.40;;;17.40;;
30080;SDS011;16902;50.816;12.828;2023-03-22T15:20:35;18.52;;;17.63;;
30080;SDS011;16902;50.816;12.828;2023-03-22T15:25:37;18.17;;;17.27;;
30080;SDS011;16902;50.816;12.828;2023-03-22T15:30:42;18.30;;;17.50;;
30080;SDS011;16902;50.816;12.828;2023-03-22T15:35:54;18.80;;;17.73;;
30080;SDS011;16902;50.816;12.828;2023-03-22T15:40:55;18.08;;;17.17;;
30080;SDS011;16902;50.816;12.828;2023-03-22T15:51:18;17.15;;;16.27;;
30080;SDS011;16902;50.816;12.828;2023-03-22T15:56:34;18.00;;;17.10;;
30080;SDS011;16902;50.816;12.828;2023-03-22T16:01:41;18.08;;;17.27;;
30080;SDS011;16902;50.816;12.828;2023-03-22T16:06:46;18.05;;;17.05;;
30080;SDS011;16902;50.816;12.828;2023-03-22T16:11:47;16.60;;;15.90;;
30080;SDS011;16902;50.816;12.828;2023-03-22T16:16:48;17.38;;;16.38;;
30080;SDS011;16902;50.816;12.828;2023-03-22T16:21:48;16.85;;;16.05;;
30080;SDS011;16902;50.816;12.828;2023-03-22T16:26:49;17.17;;;16.38;;
30080;SDS011;16902;50.816;12.828;2023-03-22T16:31:50;17.95;;;17.05;;
30080;SDS011;16902;50.816;12.828;2023-03-22T16:36:50;18.00;;;17.05;;
30080;SDS011;16902;50.816;12.828;2023-03-22T16:41:51;17.88;;;16.85;;
30080;SDS011;16902;50.816;12.828;2023-03-22T16:46:51;17.80;;;16.80;;
30080;SDS011;16902;50.816;12.828;2023-03-22T16:51:52;18.30;;;17.30;;
30080;SDS011;16902;50.816;12.828;2023-03-22T16:56:53;18.48;;;17.48;;
30080;SDS011;16902;50.816;12.828;2023-03-22T17:01:59;18.65;;;17.65;;
30080;SDS011;16902;50.816;12.828;2023-03-22T17:07:00;17.77;;;16.88;;
30080;SDS011;16902;50.816;12.828;2023-03-22T17:12:00;17.48;;;16.60;;
30080;SDS011;16902;50.816;12.828;2023-03-22T17:17:01;17.70;;;16.80;;
30080;SDS011;16902;50.816;12.828;2023-03-22T17:22:02;17.85;;;16.83;;
30080;SDS011;16902;50.816;12.828;2023-03-22T17:27:03;17.00;;;16.00;;
30080;SDS011;16902;50.816;12.828;2023-03-22T17:32:06;16.17;;;15.38;;
30080;SDS011;16902;50.816;12.828;2023-03-22T17:37:16;16.88;;;16.08;;
30080;SDS011;16902;50.816;12.828;2023-03-22T17:42:17;16.65;;;15.60;;
30080;SDS011;16902;50.816;12.828;2023-03-22T17:47:17;16.27;;;15.38;;
30080;SDS011;16902;50.816;12.828;2023-03-22T17:52:18;15.70;;;14.90;;
30080;SDS011;16902;50.816;12.828;2023-03-22T17:57:18;15.57;;;14.77;;
30080;SDS011;16902;50.816;12.828;2023-03-22T18:02:19;15.52;;;14.73;;
30080;SDS011;16902;50.816;12.828;2023-03-22T18:07:20;15.55;;;14.65;;
30080;SDS011;16902;50.816;12.828;2023-03-22T18:12:21;16.50;;;15.50;;
30080;SDS011;16902;50.816;12.828;2023-03-22T18:17:21;16.00;;;15.07;;
30080;SDS011;16902;50.816;12.828;2023-03-22T18:22:22;16.08;;;15.18;;
30080;SDS011;16902;50.816;12.828;2023-03-22T18:27:23;16.10;;;15.15;;
30080;SDS011;16902;50.816;12.828;2023-03-22T18:32:24;15.73;;;14.82;;
30080;SDS011;16902;50.816;12.828;2023-03-22T18:37:25;16.25;;;15.25;;
30080;SDS011;16902;50.816;12.828;2023-03-22T18:42:26;16.45;;;15.45;;
30080;SDS011;16902;50.816;12.828;2023-03-22T18:47:27;16.92;;;15.82;;
30080;SDS011;16902;50.816;12.828;2023-03-22T18:52:44;16.98;;;15.77;;
30080;SDS011;16902;50.816;12.828;2023-03-22T18:57:45;14.93;;;13.93;;
30080;SDS011;16902;50.816;12.828;2023-03-22T19:02:47;13.55;;;12.75;;
30080;SDS011;16902;50.816;12.828;2023-03-22T19:07:49;14.35;;;13.52;;
30080;SDS011;16902;50.816;12.828;2023-03-22T19:12:50;14.73;;;13.80;;
30080;SDS011;16902;50.816;12.828;2023-03-22T19:17:50;14.50;;;13.70;;
30080;SDS011;16902;50.816;12.828;2023-03-22T19:22:51;14.30;;;13.40;;
30080;SDS011;16902;50.816;12.828;2023-03-22T19:27:52;15.20;;;14.20;;
30080;SDS011;16902;50.816;12.828;2023-03-22T19:32:52;14.73;;;13.82;;
30080;SDS011;16902;50.816;12.828;2023-03-22T19:37:53;19.48;;;17.50;;
30080;SDS011;16902;50.816;12.828;2023-03-22T19:42:54;16.67;;;15.27;;
30080;SDS011;16902;50.816;12.828;2023-03-22T19:47:55;14.73;;;13.68;;
30080;SDS011;16902;50.816;12.828;2023-03-22T19:52:55;13.70;;;12.77;;
30080;SDS011;16902;50.816;12.828;2023-03-22T19:57:56;13.80;;;12.77;;
30080;SDS011;16902;50.816;12.828;2023-03-22T20:02:58;15.60;;;14.20;;
30080;SDS011;16902;50.816;12.828;2023-03-22T20:07:59;12.68;;;11.77;;
30080;SDS011;16902;50.816;12.828;2023-03-22T20:12:59;12.80;;;11.85;;
30080;SDS011;16902;50.816;12.828;2023-03-22T20:18:00;13.10;;;12.15;;
30080;SDS011;16902;50.816;12.828;2023-03-22T20:23:00;11.77;;;10.98;;
30080;SDS011;16902;50.816;12.828;2023-03-22T20:28:01;12.52;;;11.43;;
30080;SDS011;16902;50.816;12.828;2023-03-22T20:33:02;12.18;;;11.27;;
30080;SDS011;16902;50.816;12.828;2023-03-22T20:38:03;13.07;;;11.90;;
30080;SDS011;16902;50.816;12.828;2023-03-22T20:43:03;13.23;;;12.13;;
30080;SDS011;16902;50.816;12.828;2023-03-22T20:48:05;10.52;;;9.63;;
30080;SDS011;16902;50.816;12.828;2023-03-22T20:53:06;9.80;;;8.90;;
30080;SDS011;16902;50.816;12.828;2023-03-22T20:58:07;9.38;;;8.68;;
30080;SDS011;16902;50.816;12.828;2023-03-22T21:03:08;8.52;;;7.72;;
30080;SDS011;16902;50.816;12.828;2023-03-22T21:08:09;7.30;;;6.80;;
30080;SDS011;16902;50.816;12.828;2023-03-22T21:13:10;7.47;;;6.88;;
30080;SDS011;16902;50.816;12.828;2023-03-22T21:18:12;6.88;;;6.35;;
30080;SDS011;16902;50.816;12.828;2023-03-22T21:23:18;6.88;;;6.28;;
30080;SDS011;16902;50.816;12.828;2023-03-22T21:28:20;6.00;;;5.60;;
30080;SDS011;16902;50.816;12.828;2023-03-22T21:33:27;6.07;;;5.60;;
30080;SDS011;16902;50.816;12.828;2023-03-22T21:38:27;6.80;;;6.20;;
30080;SDS011;16902;50.816;12.828;2023-03-22T21:43:34;6.30;;;5.80;;
30080;SDS011;16902;50.816;12.828;2023-03-22T21:48:37;5.50;;;5.05;;
30080;SDS011;16902;50.816;12.828;2023-03-22T21:53:43;6.40;;;6.00;;
30080;SDS011;16902;50.816;12.828;2023-03-22T21:58:43;6.57;;;6.03;;
30080;SDS011;16902;50.816;12.828;2023-03-22T22:03:44;6.50;;;5.82;;
30080;SDS011;16902;50.816;12.828;2023-03-22T22:08:45;5.43;;;5.03;;
30080;SDS011;16902;50.816;12.828;2023-03-22T22:13:46;4.93;;;4.53;;
30080;SDS011;16902;50.816;12.828;2023-03-22T22:18:47;7.72;;;7.15;;
30080;SDS011;16902;50.816;12.828;2023-03-22T22:23:48;9.20;;;8.80;;
30080;SDS011;16902;50.816;12.828;2023-03-22T22:28:49;10.57;;;10.07;;
30080;SDS011;16902;50.816;12.828;2023-03-22T22:33:56;11.23;;;10.73;;
30080;SDS011;16902;50.816;12.828;2023-03-22T22:38:58;12.25;;;11.75;;
30080;SDS011;16902;50.816;12.828;2023-03-22T22:44:01;11.98;;;11.45;;
30080;SDS011;16902;50.816;12.828;2023-03-22T22:49:02;11.45;;;10.88;;
30080;SDS011;16902;50.816;12.828;2023-03-22T22:54:02;10.85;;;10.38;;
30080;SDS011;16902;50.816;12.828;2023-03-22T22:59:03;11.25;;;10.65;;
30080;SDS011;16902;50.816;12.828;2023-03-22T23:04:04;11.10;;;10.70;;
30080;SDS011;16902;50.816;12.828;2023-03-22T23:09:04;10.98;;;10.48;;
30080;SDS011;16902;50.816;12.828;2023-03-22T23:14:05;11.40;;;10.90;;
30080;SDS011;16902;50.816;12.828;2023-03-22T23:19:09;11.00;;;10.50;;
30080;SDS011;16902;50.816;12.828;2023-03-22T23:24:09;11.80;;;11.30;;
30080;SDS011;16902;50.816;12.828;2023-03-22T23:29:14;12.60;;;12.00;;
30080;SDS011;16902;50.816;12.828;2023-03-22T23:34:15;11.90;;;11.40;;
30080;SDS011;16902;50.816;12.828;2023-03-22T23:39:18;12.05;;;11.55;;
30080;SDS011;16902;50.816;12.828;2023-03-22T23:44:21;12.18;;;11.68;;
30080;SDS011;16902;50.816;12.828;2023-03-22T23:49:21;12.38;;;11.88;;
30080;SDS011;16902;50.816;12.828;2023-03-22T23:54:22;12.07;;;11.57;;
30080;SDS011;16902;50.816;12.828;2023-03-22T23:59:23;13.07;;;12.48;;
